FW4529 Weather Reports


time (UTC)temp
C
wind
direction
speed
KPH
gust
KPH
rain 1hr
cm
rain 24hr
cm
rain mn
cm
humidity
%
barometer
mb
20190921052624 7 0.0 0.0 0.00 0.00 0.00 86 1034.1
20190921051632 6 0.0 0.0 0.00 0.00 0.00 85 1034.1
20190921050624 6 0.0 0.0 0.00 0.00 0.00 85 1034.1
20190921045631 7 0.0 0.0 0.00 0.00 0.00 85 1034.1
20190921044624 7 135 1.6 1.6 0.00 0.00 0.00 84 1034.1
20190921043632 7 129 0.0 1.6 0.00 0.00 0.00 85 1034.0
20190921042624 7 0.0 0.0 0.00 0.00 0.00 84 1034.1
20190921041632 7 0.0 0.0 0.00 0.00 0.00 84 1034.1
20190921040624 7 0.0 0.0 0.00 0.00 0.00 84 1033.9
20190921035633 7 0.0 0.0 0.00 0.00 0.00 83 1033.9
20190921034624 7 111 0.0 1.6 0.00 0.00 0.00 82 1034.1
20190921033632 7 129 0.0 1.6 0.00 0.00 0.00 81 1034.1
20190921032624 7 135 0.0 1.6 0.00 0.00 0.00 81 1034.1
20190921031632 8 118 1.6 3.2 0.00 0.00 0.00 80 1034.1
20190921030624 8 130 0.0 1.6 0.00 0.00 0.00 80 1034.1
20190921025632 8 91 1.6 4.8 0.00 0.00 0.00 79 1034.1
20190921024624 8 137 0.0 3.2 0.00 0.00 0.00 79 1034.1
20190921023632 8 0.0 0.0 0.00 0.00 0.00 79 1033.9
20190921022624 8 131 0.0 1.6 0.00 0.00 0.00 78 1034.1
20190921021632 8 127 0.0 1.6 0.00 0.00 0.00 78 1034.1
20190921020624 8 133 0.0 1.6 0.00 0.00 0.00 78 1034.1
20190921015632 8 135 0.0 1.6 0.00 0.00 0.00 78 1034.1
20190921014624 8 120 0.0 1.6 0.00 0.00 0.00 77 1034.2
20190921013632 9 122 1.6 1.6 0.00 0.00 0.00 77 1034.2
20190921012623 9 140 0.0 1.6 0.00 0.00 0.00 77 1034.1
20190921011632 9 133 1.6 3.2 0.00 0.00 0.00 76 1034.3
20190921010624 9 127 1.6 3.2 0.00 0.00 0.00 76 1034.5
20190921005633 9 134 0.0 1.6 0.00 0.00 0.00 76 1034.2
20190921004624 9 0.0 0.0 0.00 0.00 0.00 76 1034.4
20190921003632 9 95 0.0 3.2 0.00 0.00 0.00 76 1034.4
20190921002625 9 134 1.6 1.6 0.00 0.00 0.00 76 1034.5
20190921001632 9 130 1.6 3.2 0.00 0.00 0.00 76 1034.4
20190921000624 9 118 0.0 1.6 0.00 0.00 0.00 76 1034.5
20190920235632 9 122 1.6 1.6 0.00 0.00 0.00 76 1034.6
20190920234624 9 121 1.6 3.2 0.00 0.00 0.00 76 1034.6
20190920233632 9 134 1.6 3.2 0.00 0.00 0.00 76 1034.8
20190920232624 9 146 1.6 4.8 0.00 0.00 0.00 76 1034.8
20190920231632 9 126 0.0 3.2 0.00 0.00 0.00 76 1034.8
20190920230624 9 156 3.2 4.8 0.00 0.00 0.00 76 1034.9
20190920225632 9 137 1.6 4.8 0.00 0.00 0.00 76 1034.8
20190920224624 9 128 1.6 1.6 0.00 0.00 0.00 76 1035.0
20190920223633 9 125 0.0 1.6 0.00 0.00 0.00 75 1034.9
20190920222624 10 0.0 0.0 0.00 0.00 0.00 74 1035.3
20190920221632 10 121 0.0 1.6 0.00 0.00 0.00 74 1035.3
20190920220624 10 123 0.0 1.6 0.00 0.00 0.00 77 1035.2
20190920215633 10 0.0 0.0 0.00 0.00 0.00 74 1035.4
20190920214624 10 0.0 0.0 0.00 0.00 0.00 73 1035.2
20190920213632 10 0.0 0.0 0.00 0.00 0.00 72 1035.3
20190920212624 10 0.0 0.0 0.00 0.00 0.00 72 1035.2
20190920211632 10 0.0 0.0 0.00 0.00 0.00 72 1035.5
20190920210624 10 128 0.0 1.6 0.00 0.00 0.00 71 1035.5
20190920205632 10 138 1.6 3.2 0.00 0.00 0.00 71 1035.5
20190920204623 10 139 1.6 3.2 0.00 0.00 0.00 70 1035.2
20190920203633 10 129 1.6 3.2 0.00 0.00 0.00 70 1035.2
20190920202624 10 148 1.6 3.2 0.00 0.00 0.00 69 1035.4
20190920201632 11 133 1.6 3.2 0.00 0.00 0.00 69 1035.5
20190920200625 11 120 1.6 1.6 0.00 0.00 0.00 69 1035.2
20190920195632 11 136 1.6 1.6 0.00 0.00 0.00 68 1035.5
20190920194624 11 135 1.6 3.2 0.00 0.00 0.00 68 1035.4
20190920193633 11 136 1.6 3.2 0.00 0.00 0.00 67 1035.3
20190920192624 11 123 0.0 1.6 0.00 0.00 0.00 66 1035.2
20190920191632 11 127 0.0 1.6 0.00 0.00 0.00 66 1035.5
20190920190624 11 125 0.0 1.6 0.00 0.00 0.00 66 1035.2
20190920185632 11 0.0 0.0 0.00 0.00 0.00 65 1035.2
20190920184624 11 135 1.6 1.6 0.00 0.00 0.00 65 1034.9
20190920183632 12 0.0 0.0 0.00 0.00 0.00 64 1035.2
20190920182624 12 0.0 0.0 0.00 0.00 0.00 63 1034.9
20190920181632 12 122 0.0 1.6 0.00 0.00 0.00 63 1035.0
20190920180624 12 0.0 0.0 0.00 0.00 0.00 62 1034.8
20190920175632 12 0.0 0.0 0.00 0.00 0.00 62 1035.0
20190920174624 12 117 0.0 1.6 0.00 0.00 0.00 61 1035.1
20190920173632 12 123 0.0 1.6 0.00 0.00 0.00 61 1034.8
20190920172624 12 111 0.0 1.6 0.00 0.00 0.00 60 1034.8
20190920171633 12 120 1.6 3.2 0.00 0.00 0.00 59 1034.5
20190920170624 12 86 3.2 3.2 0.00 0.00 0.00 58 1034.6
20190920165632 13 37 4.8 8.0 0.00 0.00 0.00 57 1034.5
20190920164625 13 51 4.8 9.7 0.00 0.00 0.00 56 1034.3
20190920163632 14 56 4.8 8.0 0.00 0.00 0.00 55 1034.1
20190920162625 14 48 6.4 9.7 0.00 0.00 0.00 54 1034.4
20190920161632 15 24 8.0 12.9 0.00 0.00 0.00 53 1034.6
20190920160624 15 42 6.4 12.9 0.00 0.00 0.00 52 1034.8
20190920155633 15 15 9.7 17.7 0.00 0.00 0.00 52 1034.7
20190920154624 15 337 9.7 14.5 0.00 0.00 0.00 50 1034.6
20190920153632 15 88 4.8 14.5 0.00 0.00 0.00 50 1034.7
20190920152624 15 36 8.0 12.9 0.00 0.00 0.00 49 1034.5
20190920151632 15 347 8.0 14.5 0.00 0.00 0.00 48 1034.5
20190920150625 15 80 4.8 12.9 0.00 0.00 0.00 48 1034.4
20190920145633 16 11 8.0 20.9 0.00 0.00 0.00 46 1034.4
20190920144624 15 55 6.4 12.9 0.00 0.00 0.00 46 1034.5
20190920143632 15 28 8.0 16.1 0.00 0.00 0.00 46 1034.5
20190920142625 15 106 4.8 9.7 0.00 0.00 0.00 47 1034.5
20190920141632 16 358 11.3 22.5 0.00 0.00 0.00 46 1034.8
20190920140625 15 101 4.8 11.3 0.00 0.00 0.00 47 1034.8
20190920135632 15 9 8.0 17.7 0.00 0.00 0.00 47 1034.8
20190920134624 15 16 11.3 16.1 0.00 0.00 0.00 49 1035.1
20190920133633 16 6 16.1 25.7 0.00 0.00 0.00 46 1035.1
20190920132624 16 3 12.9 24.1 0.00 0.00 0.00 44 1035.2
20190920131632 16 47 6.4 11.3 0.00 0.00 0.00 46 1035.3
20190920130624 16 16 8.0 12.9 0.00 0.00 0.00 46 1035.4
20190920125632 15 35 9.7 22.5 0.00 0.00 0.00 47 1035.4
20190920124624 15 50 8.0 12.9 0.00 0.00 0.00 46 1035.2
20190920123632 15 3 9.7 22.5 0.00 0.00 0.00 44 1035.2
20190920122625 15 20 9.7 17.7 0.00 0.00 0.00 46 1035.2
20190920121633 15 34 9.7 17.7 0.00 0.00 0.00 49 1035.3
20190920120625 15 27 8.0 16.1 0.00 0.03 0.00 51 1035.5
20190920115632 15 355 12.9 24.1 0.00 0.03 0.00 51 1035.7
20190920114624 15 348 11.3 17.7 0.00 0.03 0.00 51 1035.7
20190920113632 15 360 12.9 24.1 0.00 0.03 0.00 54 1035.8
20190920112625 14 352 12.9 25.7 0.00 0.03 0.00 54 1035.9
20190920111632 14 29 8.0 17.7 0.00 0.10 0.00 55 1036.2
20190920110625 13 356 12.9 25.7 0.00 0.10 0.00 58 1036.2
20190920105633 13 348 14.5 24.1 0.00 0.10 0.00 59 1035.8
20190920104624 13 345 16.1 25.7 0.00 0.10 0.00 59 1036.0
20190920103632 13 325 12.9 24.1 0.00 0.10 0.00 58 1035.9
20190920102625 13 100 8.0 14.5 0.00 0.10 0.00 60 1035.8
20190920101632 13 334 9.7 17.7 0.00 0.10 0.00 60 1035.8
20190920100624 13 21 9.7 17.7 0.00 0.10 0.00 59 1035.9
20190920095633 13 6 12.9 20.9 0.00 0.10 0.00 60 1036.2
20190920094624 13 18 12.9 20.9 0.00 0.10 0.00 60 1036.3
20190920093633 12 357 11.3 17.7 0.00 0.10 0.00 62 1036.2
20190920092624 12 30 11.3 16.1 0.00 0.10 0.00 65 1036.3
20190920091632 12 22 6.4 20.9 0.00 0.10 0.00 66 1036.2
20190920090625 12 47 8.0 16.1 0.00 0.10 0.00 66 1036.5
20190920085632 11 46 4.8 17.7 0.00 0.10 0.00 68 1036.4
20190920084624 11 72 8.0 12.9 0.00 0.10 0.00 67 1036.5
20190920083633 11 60 6.4 16.1 0.00 0.10 0.00 70 1036.5
20190920082624 10 351 9.7 14.5 0.00 0.10 0.00 71 1036.5
20190920081632 10 54 4.8 12.9 0.00 0.10 0.00 73 1036.5
20190920080624 10 31 8.0 14.5 0.00 0.10 0.00 74 1036.5
20190920075632 9 95 4.8 9.7 0.00 0.10 0.00 76 1036.5
20190920074625 8 59 6.4 11.3 0.00 0.10 0.00 77 1036.5
20190920073632 8 46 8.0 14.5 0.00 0.10 0.00 79 1036.7
20190920072624 8 70 6.4 11.3 0.00 0.10 0.00 81 1036.5
20190920071633 7 3 8.0 12.9 0.00 0.10 0.00 83 1036.8
20190920070624 7 43 4.8 9.7 0.00 0.10 0.00 84 1036.5
20190920065632 6 67 4.8 8.0 0.00 0.10 0.00 85 1036.4
20190920064624 6 357 6.4 11.3 0.00 0.10 0.00 86 1036.5
20190920063632 5 41 3.2 8.0 0.00 0.10 0.00 87 1036.4
20190920062625 5 85 3.2 9.7 0.00 0.10 0.00 88 1036.1
20190920061632 5 98 3.2 8.0 0.00 0.10 0.00 89 1036.2
20190920060624 4 93 1.6 3.2 0.00 0.10 0.00 90 1036.2
20190920055632 4 86 3.2 4.8 0.00 0.10 0.00 90 1035.8
20190920054625 3 59 3.2 4.8 0.00 0.10 0.00 91 1035.8
20190920053632 3 83 3.2 4.8 0.00 0.10 0.00 91 1035.8